Terminal Aerodrome Forecast
Issued by NWS

Home | Current Version | Previous Version | Text Only | Print | Product List | Glossary On
Versions: 1 2 3 4 5 6 7 8 9 10 11 12 13
000
FTUS44 KJAN 240100 AAA
TAFGTR
TAF AMD
KGTR 240123Z 2401/2424 19013KT P6SM FEW025
     FM240830 22014G22KT P6SM BKN010
     FM241600 28011G18KT P6SM FEW025=

USA.gov is the U.S. government's official web portal to all federal, state and local government web resources and services.